Time;durP1;ratioP1;P1;durP2;ratioP2;P2;SDS_P1;SDS_P2;PMS_P1;PMS_P2;Temp;Humidity;BMP_temperature;BMP_pressure;BME280_temperature;BME280_humidity;BME280_pressure;Samples;Min_cycle;Max_cycle;Signal;HPM_P1;HPM_P2
2021/08/03 00:01:18;;;;;;;1.77;0.63;;;;;;;14.69;88.99;100777.56;5040388;28;20120;-84
2021/08/03 00:04:08;;;;;;;1.45;0.85;;;;;;;14.69;89.94;100774.94;5042733;28;20471;-83
2021/08/03 00:06:41;;;;;;;1.00;0.70;;;;;;;14.69;90.13;100776.69;5059975;28;20071;-84
2021/08/03 00:09:13;;;;;;;1.90;0.85;;;;;;;14.69;90.62;100776.69;5047519;28;20059;-87
2021/08/03 00:11:48;;;;;;;1.38;0.60;;;;;;;14.68;90.80;100778.47;5051455;28;20434;-83
2021/08/03 00:14:24;;;;;;;2.10;1.90;;;;;;;14.66;91.59;100784.66;5044946;28;20097;-86
2021/08/03 00:16:50;;;;;;;2.83;0.90;;;;;;;14.66;91.76;100779.41;5050925;28;20073;-82
2021/08/03 00:19:17;;;;;;;1.30;1.00;;;;;;;14.63;91.66;100777.66;5043423;28;20403;-82
2021/08/03 00:21:46;;;;;;;0.60;0.60;;;;;;;14.60;92.10;100769.84;5046360;28;20125;-85
2021/08/03 00:24:13;;;;;;;1.42;0.85;;;;;;;14.59;92.22;100778.66;5058737;28;20067;-81
2021/08/03 00:26:40;;;;;;;1.70;1.25;;;;;;;14.56;92.75;100776.06;5042407;28;20052;-86
2021/08/03 00:29:09;;;;;;;0.90;0.90;;;;;;;14.53;92.56;100771.72;5054870;28;20048;-84
2021/08/03 00:31:36;;;;;;;1.25;0.80;;;;;;;14.50;92.90;100774.44;5043601;28;20046;-85
2021/08/03 00:34:03;;;;;;;0.90;0.90;;;;;;;14.49;92.87;100771.88;5049347;28;20055;-86
2021/08/03 00:36:30;;;;;;;2.08;0.80;;;;;;;14.47;93.08;100773.66;5049054;28;20072;-83
2021/08/03 00:38:58;;;;;;;0.93;0.80;;;;;;;14.47;93.08;100768.38;5042469;28;20041;-82
2021/08/03 00:41:32;;;;;;;0.82;0.82;;;;;;;14.44;93.42;100769.31;5047333;28;20054;-82
2021/08/03 00:43:59;;;;;;;1.08;0.60;;;;;;;14.49;93.75;100772.72;5054769;28;20043;-81
2021/08/03 00:46:25;;;;;;;0.95;0.90;;;;;;;14.54;93.49;100777.88;5053624;28;20070;-84
2021/08/03 00:48:52;;;;;;;1.98;1.23;;;;;;;14.56;93.87;100776.06;5041322;28;20068;-83
2021/08/03 00:51:22;;;;;;;1.67;0.70;;;;;;;14.57;92.99;100783.06;5043671;28;20154;-83
2021/08/03 00:53:49;;;;;;;1.00;0.70;;;;;;;14.58;92.87;100781.31;5044719;28;20049;-83
2021/08/03 00:56:16;;;;;;;1.00;0.75;;;;;;;14.58;93.16;100781.31;5039095;28;20036;-83
2021/08/03 00:58:43;;;;;;;0.77;0.70;;;;;;;14.58;93.07;100778.69;5047056;28;20055;-84
2021/08/03 01:01:16;;;;;;;1.95;0.70;;;;;;;14.56;93.07;100779.59;5056681;28;20515;-86
2021/08/03 01:03:45;;;;;;;0.75;0.70;;;;;;;14.55;93.10;100772.56;5039253;28;21519;-83
2021/08/03 01:06:29;;;;;;;0.70;0.50;;;;;;;14.56;93.69;100778.69;5048788;28;20677;-84
2021/08/03 01:09:05;;;;;;;1.30;0.73;;;;;;;14.51;93.36;100778.81;5053594;28;20071;-83
2021/08/03 01:11:50;;;;;;;2.13;0.82;;;;;;;14.48;93.59;100776.25;5056924;28;20071;-86
2021/08/03 01:14:30;;;;;;;0.47;0.47;;;;;;;14.49;93.61;100785.03;5048619;28;20090;-84
2021/08/03 01:17:17;;;;;;;0.75;0.70;;;;;;;14.51;93.63;100777.94;5045578;28;20070;-84
2021/08/03 01:27:39;;;;;;;3.85;0.75;;;;;;;14.56;93.18;100784.84;5048529;28;20037;-82
2021/08/03 01:30:07;;;;;;;2.53;0.93;;;;;;;14.58;93.14;100778.69;5051749;28;20056;-82
2021/08/03 01:32:41;;;;;;;0.80;0.80;;;;;;;14.60;93.42;100783.03;5033466;28;20051;-82
2021/08/03 01:35:09;;;;;;;0.70;0.52;;;;;;;14.61;93.09;100784.72;5040078;28;20036;-85
2021/08/03 01:37:36;;;;;;;1.65;0.75;;;;;;;14.61;93.63;100787.38;5054101;28;20048;-88
2021/08/03 01:40:12;;;;;;;3.53;1.42;;;;;;;14.60;93.56;100782.13;5038368;28;20056;-82
2021/08/03 01:42:42;;;;;;;1.52;0.88;;;;;;;14.54;93.41;100785.78;5045182;28;20059;-83
2021/08/03 01:45:12;;;;;;;1.20;1.05;;;;;;;14.53;93.51;100794.59;5041226;28;20131;-86
2021/08/03 01:47:39;;;;;;;0.68;0.68;;;;;;;14.52;93.54;100790.22;5039218;28;20460;-81
2021/08/03 01:50:09;;;;;;;0.75;0.60;;;;;;;14.48;93.61;100789.41;5050929;28;20043;-82
2021/08/03 01:52:39;;;;;;;0.98;0.82;;;;;;;14.46;93.79;100791.22;5043738;28;20139;-81
2021/08/03 01:55:09;;;;;;;0.82;0.82;;;;;;;14.43;94.03;100790.44;5053349;28;20041;-82
2021/08/03 01:57:44;;;;;;;1.52;0.93;;;;;;;14.43;94.50;100788.69;5042619;28;20068;-80
2021/08/03 02:00:12;;;;;;;1.77;0.80;;;;;;;14.43;93.83;100786.06;5057383;28;20041;-83
2021/08/03 02:02:40;;;;;;;1.20;0.90;;;;;;;14.44;93.86;100787.75;5031675;28;20048;-84
2021/08/03 02:05:08;;;;;;;1.70;0.70;;;;;;;14.45;93.66;100792.13;5072342;28;20048;-82
2021/08/03 02:07:36;;;;;;;1.38;0.70;;;;;;;14.44;93.62;100798.28;5052665;28;20048;-83
2021/08/03 02:10:07;;;;;;;0.52;0.40;;;;;;;14.46;93.78;100798.28;5037090;28;20652;-82
2021/08/03 02:12:38;;;;;;;0.50;0.50;;;;;;;14.48;93.56;100799.94;5053760;28;21567;-83
2021/08/03 02:15:07;;;;;;;1.92;0.63;;;;;;;14.48;92.89;100788.56;5050716;28;20159;-81
2021/08/03 02:17:37;;;;;;;0.68;0.68;;;;;;;14.49;93.09;100787.66;5035379;28;20040;-84
2021/08/03 02:20:07;;;;;;;1.65;0.70;;;;;;;14.50;93.18;100790.25;5036456;28;20055;-83
2021/08/03 02:22:34;;;;;;;0.73;0.73;;;;;;;14.51;93.02;100789.38;5054973;28;20048;-84
2021/08/03 02:25:00;;;;;;;1.42;1.33;;;;;;;14.53;93.28;100784.06;5054690;28;20515;-83
2021/08/03 02:27:27;;;;;;;1.27;1.00;;;;;;;14.52;93.32;100783.19;5050659;28;20138;-83
2021/08/03 02:29:53;;;;;;;0.68;0.60;;;;;;;14.51;92.96;100780.56;5055705;28;20059;-84
2021/08/03 02:32:31;;;;;;;1.58;0.75;;;;;;;14.52;93.14;100782.31;5038065;28;20068;-83
2021/08/03 02:35:15;;;;;;;0.82;0.82;;;;;;;14.50;92.97;100779.72;5027205;28;20048;-82
2021/08/03 02:37:48;;;;;;;2.75;0.75;;;;;;;14.48;93.00;100786.78;5028806;28;20044;-83
2021/08/03 02:40:15;;;;;;;1.65;0.77;;;;;;;14.48;93.17;100783.28;5026891;28;20139;-83
2021/08/03 02:42:42;;;;;;;1.02;1.02;;;;;;;14.48;92.94;100786.78;5045398;28;20048;-84
2021/08/03 02:45:10;;;;;;;1.42;0.90;;;;;;;14.47;93.09;100784.19;5028852;28;20049;-84
2021/08/03 02:47:45;;;;;;;0.55;0.55;;;;;;;14.46;92.78;100785.97;5039335;28;20140;-83
2021/08/03 02:50:17;;;;;;;0.98;0.98;;;;;;;14.45;92.83;100788.63;5038323;28;20072;-82
2021/08/03 02:52:48;;;;;;;1.95;1.05;;;;;;;14.43;92.87;100779.91;5028112;28;20044;-81
2021/08/03 02:55:25;;;;;;;1.33;0.50;;;;;;;14.42;93.08;100778.16;5039225;28;20040;-81
2021/08/03 02:57:59;;;;;;;3.22;1.40;;;;;;;14.43;93.22;100780.78;5037109;28;20040;-82
2021/08/03 03:00:33;;;;;;;3.90;1.13;;;;;;;14.42;93.16;100779.03;5024572;28;20138;-84
2021/08/03 03:03:03;;;;;;;3.22;1.13;;;;;;;14.41;93.62;100772.03;5020054;28;20414;-80
2021/08/03 03:05:34;;;;;;;0.90;0.73;;;;;;;14.42;93.54;100775.53;5038052;28;20041;-83
2021/08/03 03:08:11;;;;;;;2.70;0.90;;;;;;;14.41;93.42;100779.09;5042097;28;20585;-86
2021/08/03 03:10:48;;;;;;;1.95;0.88;;;;;;;14.37;93.77;100773.00;5037480;28;20863;-83
2021/08/03 03:13:27;;;;;;;2.72;0.77;;;;;;;14.35;94.23;100777.44;5028042;28;20052;-83
2021/08/03 03:15:55;;;;;;;2.25;1.20;;;;;;;14.34;94.21;100773.06;5035877;28;20147;-81
2021/08/03 03:18:25;;;;;;;5.18;1.08;;;;;;;14.33;94.01;100774.00;5025411;28;20049;-83
2021/08/03 03:20:53;;;;;;;0.95;0.88;;;;;;;14.33;94.18;100781.88;5040949;28;20045;-82
2021/08/03 03:23:23;;;;;;;1.70;1.05;;;;;;;14.33;94.15;100790.63;5039389;28;20114;-82
2021/08/03 03:25:53;;;;;;;1.15;1.05;;;;;;;14.34;94.06;100795.00;5030277;28;20048;-82
2021/08/03 03:28:27;;;;;;;3.50;1.13;;;;;;;14.34;93.93;100795.00;5020212;28;20040;-82
2021/08/03 03:30:55;;;;;;;1.23;0.98;;;;;;;14.36;93.64;100797.59;5021716;28;20100;-81
2021/08/03 03:33:24;;;;;;;1.58;1.38;;;;;;;14.34;93.59;100795.00;5035040;28;20047;-82
2021/08/03 03:35:55;;;;;;;1.10;1.10;;;;;;;14.33;93.88;100792.41;5040751;28;20124;-81
2021/08/03 03:38:30;;;;;;;2.15;1.13;;;;;;;14.33;94.31;100798.53;5050024;28;20048;-85
2021/08/03 03:40:58;;;;;;;2.00;0.80;;;;;;;14.32;94.19;100795.94;5043150;28;20056;-82
2021/08/03 03:43:29;;;;;;;1.85;1.35;;;;;;;14.32;94.25;100798.59;5042952;28;20450;-80
2021/08/03 03:46:07;;;;;;;4.22;1.25;;;;;;;14.32;94.23;100794.16;5041047;28;20060;-84
2021/08/03 03:48:43;;;;;;;2.65;1.25;;;;;;;14.29;93.92;100803.91;5037334;28;20615;-81
2021/08/03 03:51:17;;;;;;;1.02;0.88;;;;;;;14.22;94.20;100798.78;5016504;28;20058;-83
2021/08/03 03:53:48;;;;;;;1.63;1.40;;;;;;;14.18;94.50;100798.88;5037088;28;20072;-83
2021/08/03 03:56:26;;;;;;;1.23;1.13;;;;;;;14.11;94.81;100797.28;5038193;28;20970;-86
2021/08/03 03:59:00;;;;;;;2.05;1.25;;;;;;;14.07;95.38;100793.84;5038730;28;20049;-83
2021/08/03 04:01:27;;;;;;;;;;;;;;;14.03;95.93;100803.56;5037982;28;20044;-83
2021/08/03 04:03:56;;;;;;;1.08;0.82;;;;;;;14.00;95.37;100798.38;5018790;28;20029;-85
2021/08/03 04:06:23;;;;;;;0.80;0.80;;;;;;;13.97;95.59;100794.94;5003061;28;20069;-83
2021/08/03 04:08:50;;;;;;;1.85;1.10;;;;;;;13.92;95.63;100796.78;5009865;28;20584;-83
2021/08/03 04:11:17;;;;;;;1.20;1.10;;;;;;;13.89;96.23;100795.94;5002328;28;20458;-84
2021/08/03 04:13:52;;;;;;;1.73;1.30;;;;;;;13.84;96.00;100792.53;5017009;28;20053;-86
2021/08/03 04:16:20;;;;;;;1.25;1.23;;;;;;;13.79;96.16;100794.41;5006992;28;20170;-83
2021/08/03 04:18:49;;;;;;;1.33;1.23;;;;;;;13.75;96.88;100791.88;5024415;28;20526;-81
2021/08/03 04:21:15;;;;;;;2.17;0.90;;;;;;;13.73;96.88;100792.75;5050967;28;20049;-82
2021/08/03 04:23:45;;;;;;;2.08;1.40;;;;;;;13.78;97.51;100794.44;5026436;28;20057;-86
2021/08/03 04:26:15;;;;;;;1.98;1.20;;;;;;;13.80;97.64;100788.25;5040912;28;20029;-84
2021/08/03 04:28:41;;;;;;;2.63;1.50;;;;;;;13.88;98.09;100788.97;5029345;28;20535;-82
2021/08/03 04:31:08;;;;;;;1.35;1.25;;;;;;;13.95;97.14;100788.81;5031282;28;20408;-83
2021/08/03 04:33:37;;;;;;;2.35;1.30;;;;;;;14.02;96.78;100785.19;5019487;28;20047;-82
2021/08/03 04:36:03;;;;;;;3.15;1.23;;;;;;;14.07;96.41;100783.31;5019805;28;20044;-81
2021/08/03 04:38:31;;;;;;;4.22;1.15;;;;;;;14.14;96.27;100784.91;5024416;28;20061;-83
2021/08/03 04:40:58;;;;;;;6.00;1.95;;;;;;;14.20;95.75;100792.69;5034808;28;20396;-84
2021/08/03 04:43:24;;;;;;;2.10;1.50;;;;;;;14.22;95.39;100795.28;5020707;28;20488;-81
2021/08/03 04:45:51;;;;;;;1.40;1.30;;;;;;;14.18;95.00;100793.59;5027097;28;20080;-82
2021/08/03 04:48:17;;;;;;;2.63;1.33;;;;;;;14.14;94.84;100791.94;5032700;28;20038;-81
2021/08/03 04:50:44;;;;;;;3.22;1.35;;;;;;;14.10;95.14;100798.19;5028008;28;20622;-84
2021/08/03 04:53:11;;;;;;;3.42;1.83;;;;;;;14.07;95.57;100797.34;5031935;28;20496;-81
2021/08/03 04:55:37;;;;;;;2.58;1.10;;;;;;;14.07;95.33;100799.13;5022047;28;20045;-81
2021/08/03 04:58:04;;;;;;;1.38;1.13;;;;;;;14.10;95.59;100798.19;5017945;28;20167;-81
2021/08/03 05:00:30;;;;;;;2.88;1.40;;;;;;;14.14;95.43;100794.56;5030308;28;20167;-84
2021/08/03 05:02:57;;;;;;;2.63;1.45;;;;;;;14.18;95.31;100802.41;5028555;28;20044;-81
2021/08/03 05:05:27;;;;;;;5.22;1.25;;;;;;;14.20;95.05;100800.56;5031669;28;20131;-81
2021/08/03 05:08:01;;;;;;;3.03;2.03;;;;;;;14.22;95.46;100797.91;5035885;28;20099;-81
2021/08/03 05:10:30;;;;;;;5.85;2.30;;;;;;;14.26;95.23;100803.97;5027283;28;20060;-83
2021/08/03 05:12:57;;;;;;;6.35;2.40;;;;;;;14.33;94.98;100808.22;5017853;28;20582;-80
2021/08/03 05:15:24;;;;;;;8.20;3.95;;;;;;;14.43;94.65;100803.59;5009208;28;20408;-82
2021/08/03 05:17:51;;;;;;;11.77;4.28;;;;;;;14.53;94.17;100807.75;5030584;28;20104;-80
2021/08/03 05:20:19;;;;;;;14.45;5.53;;;;;;;14.65;93.81;100804.00;5032384;28;20065;-83
2021/08/03 05:22:47;;;;;;;16.08;5.93;;;;;;;14.75;93.33;100805.53;5000212;28;20049;-82
2021/08/03 05:25:14;;;;;;;16.92;8.65;;;;;;;14.86;92.71;100799.97;5017643;28;20123;-81
2021/08/03 05:27:41;;;;;;;12.50;5.75;;;;;;;14.93;92.52;100798.94;5047275;28;20576;-82
2021/08/03 05:30:08;;;;;;;22.48;7.78;;;;;;;14.97;92.34;100807.66;5037466;28;20756;-83
2021/08/03 05:32:43;;;;;;;27.65;12.20;;;;;;;14.99;91.92;100800.56;5033742;28;20176;-83
2021/08/03 05:35:13;;;;;;;23.67;10.70;;;;;;;15.05;91.98;100805.69;5036415;28;21394;-81
2021/08/03 05:37:39;;;;;;;20.77;9.82;;;;;;;15.15;91.44;100811.59;5032880;28;20037;-81
2021/08/03 05:40:12;;;;;;;18.60;6.93;;;;;;;15.23;91.19;100806.97;5013488;28;20084;-83
2021/08/03 05:42:42;;;;;;;10.80;5.70;;;;;;;15.30;90.71;100805.06;5033018;28;20055;-82
2021/08/03 05:45:10;;;;;;;9.40;4.85;;;;;;;15.35;90.53;100805.78;5017813;28;20055;-83
2021/08/03 05:47:37;;;;;;;9.57;4.65;;;;;;;15.41;90.41;100802.13;5036268;28;20053;-81
2021/08/03 05:50:07;;;;;;;6.35;3.28;;;;;;;15.48;89.91;100804.56;5021953;28;20060;-87
2021/08/03 05:52:35;;;;;;;6.63;3.40;;;;;;;15.50;89.38;100801.88;5018393;28;20045;-81
2021/08/03 05:55:02;;;;;;;4.85;3.53;;;;;;;15.51;89.19;100803.59;5030353;28;20503;-87
2021/08/03 05:57:30;;;;;;;6.38;3.08;;;;;;;15.50;89.18;100805.38;5018443;28;20460;-84
2021/08/03 05:59:57;;;;;;;9.13;3.55;;;;;;;15.54;89.47;100806.19;5030973;28;20106;-84
2021/08/03 06:02:24;;;;;;;9.27;4.40;;;;;;;15.62;89.30;100806.81;5047615;28;20037;-82
2021/08/03 06:04:55;;;;;;;20.02;6.15;;;;;;;15.72;88.82;100804.78;5027512;28;20206;-82
2021/08/03 06:07:25;;;;;;;7.75;3.97;;;;;;;15.78;88.33;100801.97;5022064;28;20045;-83
2021/08/03 06:09:59;;;;;;;9.38;4.43;;;;;;;15.83;87.92;100810.66;5013608;28;20049;-81
2021/08/03 06:12:27;;;;;;;9.30;5.15;;;;;;;15.85;87.61;100803.59;5031136;28;20045;-85
2021/08/03 06:14:56;;;;;;;8.23;5.25;;;;;;;15.87;87.45;100801.75;5030648;28;20051;-87
2021/08/03 06:17:38;;;;;;;11.93;5.38;;;;;;;15.83;86.27;100801.91;5018924;28;20389;-81
2021/08/03 06:20:07;;;;;;;11.02;4.18;;;;;;;15.77;86.30;100802.03;5034216;28;20045;-81
2021/08/03 06:22:38;;;;;;;4.43;2.97;;;;;;;15.69;85.94;100799.59;5031327;28;20060;-85
2021/08/03 06:25:08;;;;;;;6.07;3.00;;;;;;;15.68;85.92;100809.31;5014789;28;20048;-82
2021/08/03 06:27:38;;;;;;;8.70;2.70;;;;;;;15.69;85.82;100802.25;5009126;28;20048;-83
2021/08/03 06:30:09;;;;;;;12.07;3.17;;;;;;;15.71;85.64;100805.72;5014025;28;20041;-82
2021/08/03 06:32:37;;;;;;;5.45;3.28;;;;;;;15.69;85.01;100803.09;5028834;28;20098;-80
2021/08/03 06:35:03;;;;;;;3.03;1.67;;;;;;;15.72;84.52;100804.78;5012591;28;20173;-82
2021/08/03 06:37:30;;;;;;;8.10;2.13;;;;;;;15.75;83.10;100799.44;5048091;28;20053;-84
2021/08/03 06:39:57;;;;;;;2.88;1.08;;;;;;;15.84;82.42;100806.28;5026883;28;20037;-81
2021/08/03 06:42:33;;;;;;;3.22;0.77;;;;;;;15.91;81.64;100802.53;5029126;28;20836;-82
2021/08/03 06:45:14;;;;;;;3.75;2.55;;;;;;;15.96;81.80;100803.25;5016309;28;20403;-82
2021/08/03 06:47:53;;;;;;;6.97;2.50;;;;;;;16.06;82.37;100800.34;5032245;28;20135;-82
2021/08/03 06:50:26;;;;;;;9.52;4.03;;;;;;;16.17;82.66;100799.13;5015695;28;20069;-81
2021/08/03 06:52:53;;;;;;;3.88;2.45;;;;;;;16.31;82.60;100800.47;5018979;28;20073;-81
2021/08/03 06:55:28;;;;;;;3.15;1.77;;;;;;;16.43;81.70;100794.81;5017258;28;20049;-82
2021/08/03 06:58:01;;;;;;;6.15;2.70;;;;;;;16.50;81.54;100803.41;5013255;28;20140;-82
2021/08/03 07:00:40;;;;;;;10.15;3.83;;;;;;;16.53;80.92;100798.91;5030911;28;20376;-83
2021/08/03 07:03:08;;;;;;;4.25;2.30;;;;;;;16.54;80.71;100805.94;5032106;28;20563;-84
2021/08/03 07:05:42;;;;;;;1.42;1.33;;;;;;;16.56;79.65;100800.59;5014903;28;20129;-83
2021/08/03 07:08:10;;;;;;;1.55;1.13;;;;;;;16.55;78.67;100796.22;5021172;28;20049;-83
2021/08/03 07:10:39;;;;;;;3.20;1.23;;;;;;;16.58;78.23;100801.38;5026193;28;20092;-84
2021/08/03 07:13:06;;;;;;;2.63;1.25;;;;;;;16.65;78.12;100802.09;5018825;28;20045;-84
2021/08/03 07:15:34;;;;;;;1.38;1.20;;;;;;;16.67;77.85;100795.84;5010645;28;20053;-85
2021/08/03 07:18:02;;;;;;;2.00;0.60;;;;;;;16.67;77.23;100792.31;4995929;28;20065;-87
2021/08/03 07:20:30;;;;;;;1.50;1.02;;;;;;;16.70;77.54;100793.09;4995375;28;20514;-83
2021/08/03 07:22:58;;;;;;;2.22;0.75;;;;;;;16.83;76.86;100800.59;4992800;28;20401;-85
2021/08/03 07:25:25;;;;;;;0.95;0.75;;;;;;;16.99;75.39;100798.38;5016611;28;20044;-83
2021/08/03 07:27:52;;;;;;;4.57;0.85;;;;;;;17.20;74.31;100805.56;5002151;28;20053;-83
2021/08/03 07:30:18;;;;;;;0.52;0.50;;;;;;;17.76;72.01;100800.13;5006209;28;20053;-86
2021/08/03 07:32:45;;;;;;;0.50;0.50;;;;;;;18.55;68.30;100797.13;5014203;28;20133;-82
2021/08/03 07:35:15;;;;;;;1.80;0.60;;;;;;;19.25;65.62;100795.19;4998697;28;20046;-82
2021/08/03 07:37:41;;;;;;;0.65;0.40;;;;;;;19.82;63.70;100790.91;4997110;28;20456;-83
2021/08/03 07:40:09;;;;;;;0.95;0.57;;;;;;;20.35;61.21;100788.50;4983747;28;20115;-84
2021/08/03 07:42:35;;;;;;;2.75;0.45;;;;;;;20.67;59.19;100778.91;5004223;28;20073;-81
2021/08/03 07:45:06;;;;;;;0.50;0.30;;;;;;;21.05;57.15;100785.97;5003573;28;20208;-81
2021/08/03 07:47:35;;;;;;;0.30;0.30;;;;;;;21.53;55.94;100788.81;5017902;28;20132;-82
2021/08/03 07:50:02;;;;;;;0.98;0.30;;;;;;;21.99;54.56;100788.19;5040893;28;20037;-82
2021/08/03 07:52:28;;;;;;;0.55;0.30;;;;;;;21.95;53.76;100783.97;5011297;28;20045;-82
2021/08/03 07:54:55;;;;;;;0.32;0.28;;;;;;;21.78;54.24;100787.53;5017668;28;20060;-84
2021/08/03 07:57:23;;;;;;;1.25;0.45;;;;;;;21.60;53.95;100776.06;5034578;28;20053;-83
2021/08/03 07:59:51;;;;;;;1.85;0.60;;;;;;;21.74;53.53;100786.00;5026885;28;20049;-85
2021/08/03 08:02:17;;;;;;;0.80;0.30;;;;;;;21.75;53.06;100783.25;5029833;28;20049;-84
2021/08/03 08:04:44;;;;;;;2.42;0.30;;;;;;;21.40;53.70;100777.09;5028904;28;20061;-82
2021/08/03 08:07:11;;;;;;;1.42;0.35;;;;;;;21.12;53.48;100782.06;5032040;28;20120;-83
2021/08/03 08:09:44;;;;;;;1.42;0.30;;;;;;;20.84;53.82;100774.59;5038907;28;20053;-83
2021/08/03 08:12:12;;;;;;;1.02;0.40;;;;;;;20.65;54.48;100770.16;5021858;28;20135;-83
2021/08/03 08:14:38;;;;;;;0.82;0.40;;;;;;;20.61;54.40;100775.69;5032706;28;20053;-84
2021/08/03 08:17:05;;;;;;;1.08;0.35;;;;;;;20.47;53.91;100779.06;5031349;28;20033;-83
2021/08/03 08:19:32;;;;;;;0.40;0.25;;;;;;;20.33;53.44;100775.25;5036352;28;20053;-82
2021/08/03 08:21:58;;;;;;;0.43;0.43;;;;;;;20.21;53.59;100773.19;5014551;28;20059;-84
2021/08/03 08:24:27;;;;;;;1.30;0.50;;;;;;;20.17;53.66;100774.28;5021392;28;20107;-81
2021/08/03 08:26:54;;;;;;;1.70;0.40;;;;;;;20.00;53.23;100772.41;5031419;28;20711;-81
2021/08/03 08:29:20;;;;;;;0.93;0.68;;;;;;;19.77;52.92;100770.78;5011115;28;20061;-82
2021/08/03 08:31:47;;;;;;;2.47;0.63;;;;;;;19.63;52.83;100766.97;5031567;28;20407;-84
2021/08/03 08:34:14;;;;;;;0.50;0.50;;;;;;;19.49;53.25;100772.03;5019543;28;20049;-84
2021/08/03 08:36:41;;;;;;;1.35;0.30;;;;;;;19.43;53.22;100766.97;5033657;28;20035;-83
2021/08/03 08:39:08;;;;;;;2.25;0.50;;;;;;;19.37;52.99;100767.25;5033014;28;20049;-83
2021/08/03 08:41:39;;;;;;;2.05;0.30;;;;;;;19.26;53.49;100768.56;5013928;28;20045;-85
2021/08/03 08:44:06;;;;;;;0.32;0.32;;;;;;;19.21;53.87;100761.75;5014700;28;20057;-81
2021/08/03 08:46:37;;;;;;;2.33;0.45;;;;;;;19.17;54.17;100763.66;5034108;28;20041;-83
2021/08/03 08:49:09;;;;;;;0.93;0.68;;;;;;;19.17;54.09;100764.50;5031391;28;20064;-81
2021/08/03 08:51:39;;;;;;;0.63;0.50;;;;;;;19.16;54.98;100760.16;5014826;28;20048;-83
2021/08/03 08:54:05;;;;;;;3.08;0.50;;;;;;;19.22;55.28;100758.16;5026932;28;20143;-82
2021/08/03 08:56:32;;;;;;;0.63;0.50;;;;;;;19.28;55.73;100758.75;5017298;28;20053;-83
2021/08/03 08:58:59;;;;;;;2.25;0.60;;;;;;;19.38;56.39;100755.69;5034723;28;23598;-84
2021/08/03 09:01:26;;;;;;;2.38;0.47;;;;;;;19.55;56.52;100754.94;5032815;28;20501;-82
2021/08/03 09:03:55;;;;;;;1.77;0.63;;;;;;;19.79;56.10;100758.25;5018354;28;20444;-87
2021/08/03 09:06:22;;;;;;;0.32;0.30;;;;;;;19.80;56.23;100755.56;5053972;28;20059;-82
2021/08/03 09:08:51;;;;;;;3.60;1.10;;;;;;;19.69;56.39;100754.34;5038962;28;20399;-83
2021/08/03 09:11:22;;;;;;;2.30;0.47;;;;;;;19.54;57.11;100759.38;5036529;28;20457;-82
2021/08/03 09:13:53;;;;;;;2.50;1.13;;;;;;;19.50;57.11;100753.38;5037161;28;20110;-83
2021/08/03 09:16:24;;;;;;;0.73;0.40;;;;;;;19.50;57.03;100748.06;5039724;28;20050;-82
2021/08/03 09:18:54;;;;;;;0.82;0.40;;;;;;;19.55;56.92;100750.47;5036773;28;20049;-82
2021/08/03 09:21:30;;;;;;;0.73;0.50;;;;;;;20.47;54.86;100747.16;5036817;28;20048;-83
2021/08/03 09:24:01;;;;;;;0.55;0.30;;;;;;;22.59;50.50;100749.31;5048753;28;20044;-88
2021/08/03 09:26:46;;;;;;;0.60;0.32;;;;;;;25.00;42.98;100738.78;5053850;28;20060;-87
2021/08/03 09:29:19;;;;;;;0.43;0.40;;;;;;;25.58;41.94;100739.25;5036167;28;20056;-85
2021/08/03 09:31:55;;;;;;;;;;;;;;;25.38;41.70;100741.53;5051561;28;20053;-84
2021/08/03 09:34:22;;;;;;;0.52;0.30;;;;;;;25.33;42.71;100745.44;5030049;28;19931;-83
2021/08/03 09:36:55;;;;;;;0.50;0.50;;;;;;;25.60;41.11;100745.34;5034317;28;20048;-83
2021/08/03 09:39:44;;;;;;;1.48;0.40;;;;;;;25.40;39.49;100750.31;5048879;28;20052;-82
2021/08/03 09:42:24;;;;;;;0.57;0.38;;;;;;;25.06;41.71;100741.06;5033815;28;20153;-82
2021/08/03 09:44:59;;;;;;;1.77;0.50;;;;;;;24.90;41.35;100747.44;5051472;28;20048;-84
2021/08/03 09:47:29;;;;;;;4.03;0.50;;;;;;;24.70;41.86;100738.06;5045906;28;20033;-82
2021/08/03 09:49:59;;;;;;;1.13;0.40;;;;;;;24.65;41.50;100742.03;5038066;28;20076;-82
2021/08/03 09:52:33;;;;;;;0.55;0.32;;;;;;;24.45;42.14;100738.84;5030899;28;20051;-84
2021/08/03 09:55:23;;;;;;;0.38;0.30;;;;;;;24.58;41.67;100734.38;5031549;28;20055;-86
2021/08/03 09:57:49;;;;;;;0.55;0.55;;;;;;;24.89;40.85;100739.53;5039929;28;20044;-82
2021/08/03 10:00:36;;;;;;;1.27;0.47;;;;;;;24.94;39.75;100730.22;5046898;28;20055;-82
2021/08/03 10:03:03;;;;;;;2.92;1.60;;;;;;;24.71;40.30;100729.09;5029677;28;20051;-83
2021/08/03 10:05:31;;;;;;;0.65;0.50;;;;;;;24.23;40.75;100732.19;5011817;28;20136;-84
2021/08/03 10:07:59;;;;;;;1.42;0.50;;;;;;;24.01;41.22;100729.22;5015110;28;20052;-86
2021/08/03 10:10:34;;;;;;;1.52;0.52;;;;;;;24.09;41.55;100726.91;5018828;28;20420;-85
2021/08/03 10:13:01;;;;;;;1.23;1.13;;;;;;;24.01;41.37;100723.88;5030201;28;20036;-83
2021/08/03 10:15:28;;;;;;;0.82;0.57;;;;;;;23.90;41.49;100721.91;5021515;28;20054;-82
2021/08/03 10:17:59;;;;;;;0.60;0.40;;;;;;;23.63;41.41;100725.31;5035676;28;20044;-85
2021/08/03 10:20:27;;;;;;;1.38;0.70;;;;;;;23.42;41.99;100720.34;5014251;28;20504;-84
2021/08/03 10:23:03;;;;;;;2.85;0.43;;;;;;;23.33;42.14;100725.41;5025375;28;20048;-84
2021/08/03 10:25:41;;;;;;;0.50;0.32;;;;;;;23.02;42.46;100714.75;5032185;28;20517;-84
2021/08/03 10:28:26;;;;;;;0.60;0.22;;;;;;;22.80;43.07;100712.50;5028835;28;20566;-83
2021/08/03 10:30:58;;;;;;;1.70;0.40;;;;;;;22.77;43.04;100713.53;5050567;28;20438;-82
2021/08/03 10:33:48;;;;;;;0.98;0.38;;;;;;;23.04;42.57;100712.84;5051155;28;21542;-85
2021/08/03 10:36:39;;;;;;;3.13;0.40;;;;;;;23.83;41.18;100712.50;5049901;28;20050;-81
2021/08/03 10:39:17;;;;;;;1.85;0.50;;;;;;;25.79;37.92;100706.50;5051890;28;20049;-82
2021/08/03 10:41:58;;;;;;;2.60;0.43;;;;;;;28.38;33.97;100686.50;5050376;28;21697;-81
2021/08/03 10:44:51;;;;;;;0.40;0.30;;;;;;;30.66;29.74;100696.25;5068028;28;20546;-83
2021/08/03 10:47:33;;;;;;;3.30;0.40;;;;;;;32.30;27.19;100692.16;5031267;28;20120;-84
2021/08/03 10:50:09;;;;;;;1.15;0.70;;;;;;;33.60;26.87;100694.25;5046469;28;20075;-86
2021/08/03 10:53:03;;;;;;;0.52;0.40;;;;;;;34.70;24.44;100696.84;5022306;28;20052;-87
2021/08/03 10:55:43;;;;;;;0.68;0.40;;;;;;;35.16;24.35;100693.56;5037078;28;20068;-85
2021/08/03 10:58:09;;;;;;;0.95;0.38;;;;;;;35.25;24.07;100697.97;5031701;28;20080;-83
2021/08/03 11:00:55;;;;;;;0.65;0.57;;;;;;;33.79;23.11;100695.84;5030256;28;20049;-83
2021/08/03 11:03:34;;;;;;;0.35;0.22;;;;;;;31.28;26.03;100698.56;5036000;28;20053;-83
2021/08/03 11:06:06;;;;;;;2.63;0.50;;;;;;;29.62;28.24;100692.09;5046551;28;20480;-82
2021/08/03 11:08:43;;;;;;;;;;;;;;;28.09;30.29;100696.97;5037092;28;20051;-86
2021/08/03 11:11:15;;;;;;;;;;;;;;;27.00;32.03;100693.06;5023033;28;19931;-83
2021/08/03 11:13:48;;;;;;;;;;;;;;;26.67;33.16;100692.81;5019570;28;19975;-86
2021/08/03 11:16:24;;;;;;;;;;;;;;;27.22;32.39;100686.88;5037184;28;19920;-83
2021/08/03 11:18:51;;;;;;;;;;;;;;;28.67;30.00;100688.59;5038208;28;19924;-82
2021/08/03 11:21:29;;;;;;;;;;;;;;;30.54;27.83;100684.72;5021686;28;19924;-82
2021/08/03 11:24:15;;;;;;;;;;;;;;;32.28;25.45;100677.94;5050860;28;19963;-85
2021/08/03 11:26:55;;;;;;;;;;;;;;;33.35;24.32;100680.59;5027793;28;21141;-85
2021/08/03 11:29:24;;;;;;;;;;;;;;;33.27;24.19;100681.41;5023374;28;19928;-87
2021/08/03 11:31:57;;;;;;;;;;;;;;;31.82;24.85;100682.50;5033371;28;19964;-85
2021/08/03 11:34:42;;;;;;;;;;;;;;;29.70;28.30;100689.56;5039155;28;19925;-83
2021/08/03 11:37:11;;;;;;;;;;;;;;;27.66;30.71;100677.09;5034297;28;20852;-82
2021/08/03 11:39:54;;;;;;;;;;;;;;;26.19;33.18;100685.69;5027193;28;19920;-85
2021/08/03 11:42:33;;;;;;;;;;;;;;;25.43;35.22;100676.88;5034029;28;19935;-84
2021/08/03 11:45:12;;;;;;;;;;;;;;;25.00;35.71;100680.72;5037502;28;19931;-82
2021/08/03 11:47:51;;;;;;;;;;;;;;;24.75;35.23;100666.34;5017174;28;20383;-87
2021/08/03 11:50:39;;;;;;;;;;;;;;;24.72;35.71;100666.56;5036404;28;19928;-82
2021/08/03 11:53:10;;;;;;;;;;;;;;;24.69;35.68;100671.25;5033441;28;19970;-85
2021/08/03 11:55:37;;;;;;;;;;;;;;;24.68;35.76;100667.75;5035159;28;19963;-83